createdAt,value
2019-02-09T00:00:16.106Z,93307.44
2019-02-09T00:02:43.483Z,93295.44
2019-02-09T00:05:10.900Z,93291.55
2019-02-09T00:07:38.442Z,93290.91
2019-02-09T00:10:05.939Z,93288.64
2019-02-09T00:12:33.415Z,93293.51
2019-02-09T00:15:00.851Z,93283.45
2019-02-09T00:17:28.290Z,93283.80
2019-02-09T00:19:55.764Z,93274.38
2019-02-09T00:22:24.965Z,93267.58
2019-02-09T00:24:52.443Z,93271.95
2019-02-09T00:27:19.790Z,93275.02
2019-02-09T00:29:47.143Z,93273.08
2019-02-09T00:32:14.527Z,93273.42
2019-02-09T00:34:41.941Z,93269.98
2019-02-09T00:37:09.407Z,93265.30
2019-02-09T00:39:37.919Z,93261.09
2019-02-09T00:42:05.507Z,93268.86
2019-02-09T00:44:32.894Z,93260.42
2019-02-09T00:47:00.291Z,93250.38
2019-02-09T00:49:27.710Z,93257.83
2019-02-09T00:51:55.088Z,93248.11
2019-02-09T00:54:22.518Z,93248.42
2019-02-09T00:56:50.005Z,93244.86
2019-02-09T00:59:17.495Z,93249.73
2019-02-09T01:01:44.877Z,93252.17
2019-02-09T01:04:12.275Z,93246.48
2019-02-09T01:06:39.664Z,93247.14
2019-02-09T01:09:10.015Z,93246.14
2019-02-09T01:11:37.486Z,93242.27
2019-02-09T01:14:04.967Z,93242.61
2019-02-09T01:16:32.384Z,93235.15
2019-02-09T01:19:00.056Z,93244.23
2019-02-09T01:21:27.499Z,93238.70
2019-02-09T01:23:54.878Z,93234.80
2019-02-09T01:26:22.471Z,93234.15
2019-02-09T01:28:49.828Z,93231.25
2019-02-09T01:31:19.054Z,93217.30
2019-02-09T01:33:46.547Z,93224.08
2019-02-09T01:36:13.923Z,93215.00
2019-02-09T01:38:41.281Z,93223.74
2019-02-09T01:41:08.665Z,93230.25
2019-02-09T01:43:36.117Z,93224.41
2019-02-09T01:46:03.572Z,93215.63
2019-02-09T01:48:30.995Z,93216.28
2019-02-09T01:50:58.414Z,93208.50
2019-02-09T01:53:25.818Z,93211.74
2019-02-09T01:55:53.187Z,93208.18
2019-02-09T01:58:20.594Z,93201.36
2019-02-09T02:00:48.042Z,93213.85
2019-02-09T02:03:15.401Z,93212.09
2019-02-09T02:05:42.994Z,93207.99
2019-02-09T02:08:12.572Z,93209.43
2019-02-09T02:10:51.078Z,93194.48
2019-02-09T02:13:18.483Z,93189.91
2019-02-09T02:15:45.871Z,93186.64
2019-02-09T02:18:13.270Z,93171.98
2019-02-09T02:20:40.861Z,93166.07
2019-02-09T02:23:08.226Z,93159.34
2019-02-09T02:25:35.698Z,93155.13
2019-02-09T02:28:03.272Z,93139.02
2019-02-09T02:30:34.308Z,93137.66
2019-02-09T02:33:01.661Z,93145.30
2019-02-09T02:35:29.422Z,93142.52
2019-02-09T02:37:57.083Z,93141.70
2019-02-09T02:40:24.871Z,93145.61
2019-02-09T02:42:52.230Z,93152.21
2019-02-09T02:45:19.716Z,93144.67
2019-02-09T02:47:49.014Z,93144.29
2019-02-09T02:50:17.055Z,93147.13
2019-02-09T02:52:44.446Z,93152.02
2019-02-09T02:55:12.859Z,93160.42
2019-02-09T02:57:40.335Z,93154.53
2019-02-09T03:00:09.523Z,93147.61
2019-02-09T03:02:36.876Z,93163.61
2019-02-09T03:05:04.869Z,93153.20
2019-02-09T03:07:32.258Z,93152.39
2019-02-09T03:09:59.616Z,93159.99
2019-02-09T03:12:27.078Z,93166.91
2019-02-09T03:14:54.467Z,93175.70
2019-02-09T03:17:21.906Z,93188.45
2019-02-09T03:19:49.294Z,93194.27
2019-02-09T03:22:16.639Z,93205.36
2019-02-09T03:24:44.001Z,93224.25
2019-02-09T03:27:11.885Z,93226.92
2019-02-09T03:29:39.247Z,93223.71
2019-02-09T03:32:06.605Z,93251.91
2019-02-09T03:34:34.163Z,93265.46
2019-02-09T03:37:01.670Z,93269.36
2019-02-09T03:39:29.083Z,93265.19
2019-02-09T03:41:56.447Z,93258.68
2019-02-09T03:44:23.902Z,93262.91
2019-02-09T03:46:51.263Z,93251.86
2019-02-09T03:49:18.630Z,93252.24
2019-02-09T03:51:46.046Z,93259.17
2019-02-09T03:54:13.406Z,93259.83
2019-02-09T03:56:40.885Z,93262.55
2019-02-09T03:59:08.264Z,93265.20
2019-02-09T04:01:35.843Z,93272.39
2019-02-09T04:04:03.466Z,93265.94
2019-02-09T04:06:31.128Z,93261.07
2019-02-09T04:08:58.467Z,93252.38
2019-02-09T04:11:25.868Z,93263.46
2019-02-09T04:13:53.227Z,93256.35
2019-02-09T04:16:20.804Z,93260.25
2019-02-09T04:18:49.281Z,93254.44
2019-02-09T04:21:16.629Z,93231.38
2019-02-09T04:23:44.001Z,93233.09
2019-02-09T04:26:11.373Z,93247.26
2019-02-09T04:28:38.843Z,93260.94
2019-02-09T04:31:06.959Z,93264.15
2019-02-09T04:33:34.546Z,93278.83
2019-02-09T04:36:01.924Z,93271.33
2019-02-09T04:38:29.615Z,93277.79
2019-02-09T04:40:57.005Z,93293.41
2019-02-09T04:43:24.417Z,93283.67
2019-02-09T04:45:51.888Z,93282.20
2019-02-09T04:48:22.215Z,93284.54
2019-02-09T04:50:49.620Z,93283.56
2019-02-09T04:53:17.099Z,93290.38
2019-02-09T04:55:44.467Z,93302.11
2019-02-09T04:58:11.891Z,93308.13
2019-02-09T05:00:39.242Z,93315.56
2019-02-09T05:03:06.703Z,93314.42
2019-02-09T05:05:34.140Z,93314.91
2019-02-09T05:08:01.939Z,93302.77
2019-02-09T05:10:29.280Z,93293.70
2019-02-09T05:12:56.675Z,93296.14
2019-02-09T05:15:24.249Z,93296.98
2019-02-09T05:17:51.610Z,93297.02
2019-02-09T05:20:20.702Z,93297.66
2019-02-09T05:22:48.220Z,93300.78
2019-02-09T05:25:15.674Z,93306.41
2019-02-09T05:27:46.089Z,93318.77
2019-02-09T05:30:16.460Z,93316.80
2019-02-09T05:32:43.912Z,93314.69
2019-02-09T05:35:13.490Z,93317.45
2019-02-09T05:37:40.877Z,93329.11
2019-02-09T05:40:13.350Z,93343.04
2019-02-09T05:42:40.841Z,93346.02
2019-02-09T05:45:17.190Z,93346.02
2019-02-09T05:47:44.685Z,93350.70
2019-02-09T05:50:12.735Z,93350.67
2019-02-09T05:52:40.116Z,93363.50
2019-02-09T05:55:08.106Z,93369.48
2019-02-09T05:57:35.618Z,93365.91
2019-02-09T06:00:05.090Z,93360.28
2019-02-09T06:02:32.879Z,93376.82
2019-02-09T06:05:03.478Z,93378.80
2019-02-09T06:07:32.017Z,93373.62
2019-02-09T06:09:59.421Z,93372.97
2019-02-09T06:12:26.785Z,93371.25
2019-02-09T06:14:54.153Z,93376.76
2019-02-09T06:17:21.527Z,93381.79
2019-02-09T06:19:48.912Z,93369.17
2019-02-09T06:22:16.373Z,93381.81
2019-02-09T06:24:43.792Z,93371.77
2019-02-09T06:27:11.155Z,93365.61
2019-02-09T06:29:41.081Z,93372.89
2019-02-09T06:32:08.551Z,93362.66
2019-02-09T06:34:36.301Z,93363.31
2019-02-09T06:37:03.867Z,93363.31
2019-02-09T06:39:31.239Z,93362.28
2019-02-09T06:41:58.631Z,93365.53
2019-02-09T06:44:25.999Z,93373.95
2019-02-09T06:46:53.367Z,93380.06
2019-02-09T06:49:20.801Z,93384.91
2019-02-09T06:51:48.267Z,93385.86
2019-02-09T06:54:15.665Z,93391.03
2019-02-09T06:56:43.104Z,93396.84
2019-02-09T06:59:10.529Z,93394.83
2019-02-09T07:01:37.930Z,93411.67
2019-02-09T07:04:05.405Z,93408.87
2019-02-09T07:06:32.745Z,93404.28
2019-02-09T07:09:00.565Z,93400.86
2019-02-09T07:11:27.953Z,93391.69
2019-02-09T07:13:55.358Z,93408.52
2019-02-09T07:16:22.998Z,93393.55
2019-02-09T07:18:50.383Z,93399.31
2019-02-09T07:21:17.876Z,93407.41
2019-02-09T07:23:45.378Z,93404.43
2019-02-09T07:26:12.911Z,93408.98
2019-02-09T07:28:40.351Z,93411.89
2019-02-09T07:31:07.703Z,93420.68
2019-02-09T07:33:35.116Z,93427.47
2019-02-09T07:36:02.601Z,93434.42
2019-02-09T07:38:30.003Z,93447.55
2019-02-09T07:40:57.500Z,93449.46
2019-02-09T07:43:24.898Z,93450.88
2019-02-09T07:45:52.287Z,93455.75
2019-02-09T07:48:19.723Z,93453.60
2019-02-09T07:50:47.104Z,93464.85
2019-02-09T07:53:14.482Z,93462.31
2019-02-09T07:55:41.900Z,93463.56
2019-02-09T07:58:09.328Z,93467.88
2019-02-09T08:00:36.727Z,93472.10
2019-02-09T08:03:06.443Z,93473.42
2019-02-09T08:05:33.900Z,93467.22
2019-02-09T08:08:01.291Z,93474.28
2019-02-09T08:10:32.453Z,93470.84
2019-02-09T08:13:00.431Z,93473.83
2019-02-09T08:15:28.262Z,93476.34
2019-02-09T08:17:55.653Z,93466.53
2019-02-09T08:20:23.635Z,93476.86
2019-02-09T08:22:51.359Z,93466.00
2019-02-09T08:25:19.938Z,93467.48
2019-02-09T08:27:47.434Z,93472.78
2019-02-09T08:30:16.343Z,93471.59
2019-02-09T08:32:43.724Z,93474.27
2019-02-09T08:35:11.128Z,93468.95
2019-02-09T08:37:39.882Z,93478.78
2019-02-09T08:40:07.748Z,93482.91
2019-02-09T08:42:35.358Z,93483.92
2019-02-09T08:45:03.648Z,93494.41
2019-02-09T08:47:31.028Z,93483.49
2019-02-09T08:49:58.527Z,93490.76
2019-02-09T08:52:26.016Z,93495.39
2019-02-09T08:54:54.493Z,93500.94
2019-02-09T08:57:23.786Z,93501.17
2019-02-09T08:59:51.187Z,93501.34
2019-02-09T09:02:20.623Z,93494.99
2019-02-09T09:04:47.958Z,93496.00
2019-02-09T09:07:15.340Z,93490.24
2019-02-09T09:09:42.839Z,93477.23
2019-02-09T09:12:10.413Z,93457.65
2019-02-09T09:14:37.948Z,93483.45
2019-02-09T09:17:05.374Z,93491.19
2019-02-09T09:19:32.803Z,93482.89
2019-02-09T09:22:00.274Z,93483.20
2019-02-09T09:24:27.646Z,93505.54
2019-02-09T09:26:55.094Z,93499.27
2019-02-09T09:29:25.686Z,93500.56
2019-02-09T09:31:53.158Z,93500.34
2019-02-09T09:34:20.606Z,93495.12
2019-02-09T09:36:48.470Z,93487.95
2019-02-09T09:39:15.875Z,93489.19
2019-02-09T09:41:43.356Z,93482.47
2019-02-09T09:44:10.747Z,93486.30
2019-02-09T09:46:38.146Z,93488.05
2019-02-09T09:49:05.981Z,93495.91
2019-02-09T09:51:33.449Z,93500.25
2019-02-09T09:54:00.968Z,93494.25
2019-02-09T09:56:28.383Z,93500.43
2019-02-09T09:58:55.875Z,93500.64
2019-02-09T10:01:23.321Z,93499.94
2019-02-09T10:03:52.098Z,93516.41
2019-02-09T10:06:19.745Z,93526.35
2019-02-09T10:08:47.254Z,93531.41
2019-02-09T10:11:14.675Z,93526.52
2019-02-09T10:13:42.147Z,93551.20
2019-02-09T10:16:09.645Z,93560.45
2019-02-09T10:18:37.059Z,93577.45
2019-02-09T10:21:04.480Z,93592.73
2019-02-09T10:23:31.978Z,93597.72
2019-02-09T10:25:59.383Z,93590.38
2019-02-09T10:28:26.795Z,93593.25
2019-02-09T10:30:54.173Z,93602.02
2019-02-09T10:33:21.552Z,93609.48
2019-02-09T10:35:48.975Z,93609.66
2019-02-09T10:38:16.504Z,93614.61
2019-02-09T10:40:44.047Z,93619.45
2019-02-09T10:43:11.146Z,93619.50
2019-02-09T10:45:38.683Z,93625.26
2019-02-09T10:48:06.924Z,93614.73
2019-02-09T10:50:35.539Z,93614.48
2019-02-09T10:53:03.151Z,93603.65
2019-02-09T10:55:30.526Z,93611.28
2019-02-09T10:57:58.016Z,93610.88
2019-02-09T11:00:30.025Z,93619.27
2019-02-09T11:02:57.725Z,93615.62
2019-02-09T11:05:25.473Z,93607.62
2019-02-09T11:07:52.949Z,93610.95
2019-02-09T11:10:20.963Z,93604.08
2019-02-09T11:12:48.371Z,93594.92
2019-02-09T11:15:17.400Z,93573.55
2019-02-09T11:17:44.782Z,93591.08
2019-02-09T11:20:13.358Z,93586.64
2019-02-09T11:22:42.189Z,93590.31
2019-02-09T11:25:10.091Z,93597.17
2019-02-09T11:27:37.555Z,93587.48
2019-02-09T11:30:05.713Z,93582.55
2019-02-09T11:32:33.086Z,93579.17
2019-02-09T11:35:01.293Z,93597.29
2019-02-09T11:37:28.825Z,93594.06
2019-02-09T11:39:56.345Z,93604.14
2019-02-09T11:42:23.844Z,93600.91
2019-02-09T11:44:51.358Z,93600.94
2019-02-09T11:47:18.864Z,93601.06
2019-02-09T11:49:46.274Z,93599.19
2019-02-09T11:52:13.707Z,93597.84
2019-02-09T11:54:41.152Z,93596.57
2019-02-09T11:57:08.535Z,93589.05
2019-02-09T11:59:35.936Z,93602.56
2019-02-09T12:02:03.638Z,93593.85
2019-02-09T12:04:31.102Z,93598.58
2019-02-09T12:06:58.705Z,93608.47
2019-02-09T12:09:26.108Z,93608.03
2019-02-09T12:11:53.635Z,93609.27
2019-02-09T12:14:21.016Z,93619.31
2019-02-09T12:16:48.420Z,93618.19
2019-02-09T12:19:15.850Z,93601.75
2019-02-09T12:21:43.214Z,93606.78
2019-02-09T12:24:12.075Z,93599.32
2019-02-09T12:26:39.594Z,93594.83
2019-02-09T12:29:07.008Z,93599.26
2019-02-09T12:31:34.390Z,93594.20
2019-02-09T12:34:01.810Z,93597.69
2019-02-09T12:36:29.231Z,93587.55
2019-02-09T12:38:56.595Z,93591.47
2019-02-09T12:41:24.013Z,93594.56
2019-02-09T12:43:51.532Z,93592.22
2019-02-09T12:46:19.031Z,93591.71
2019-02-09T12:48:46.499Z,93580.89
2019-02-09T12:51:13.874Z,93569.31
2019-02-09T12:53:41.373Z,93565.44
2019-02-09T12:56:08.805Z,93558.45
2019-02-09T12:58:36.211Z,93555.44
2019-02-09T13:01:04.130Z,93552.59
2019-02-09T13:03:31.660Z,93550.84
2019-02-09T13:05:59.153Z,93542.76
2019-02-09T13:08:26.562Z,93545.53
2019-02-09T13:10:53.968Z,93545.21
2019-02-09T13:13:21.424Z,93541.37
2019-02-09T13:15:48.935Z,93544.84
2019-02-09T13:18:16.334Z,93550.38
2019-02-09T13:20:43.734Z,93534.16
2019-02-09T13:23:11.180Z,93539.63
2019-02-09T13:25:38.689Z,93547.58
2019-02-09T13:28:06.167Z,93544.55
2019-02-09T13:30:33.754Z,93555.24
2019-02-09T13:33:01.174Z,93550.38
2019-02-09T13:35:28.645Z,93553.62
2019-02-09T13:37:56.099Z,93551.69
2019-02-09T13:40:23.712Z,93554.78
2019-02-09T13:42:51.216Z,93570.03
2019-02-09T13:45:23.186Z,93550.18
2019-02-09T13:47:50.575Z,93558.69
2019-02-09T13:50:18.079Z,93574.20
2019-02-09T13:52:45.495Z,93572.23
2019-02-09T13:55:13.012Z,93571.42
2019-02-09T13:57:40.489Z,93566.06
2019-02-09T14:00:09.996Z,93561.55
2019-02-09T14:02:37.377Z,93577.88
2019-02-09T14:05:04.987Z,93569.52
2019-02-09T14:07:32.354Z,93568.67
2019-02-09T14:09:59.730Z,93574.94
2019-02-09T14:12:27.130Z,93576.50
2019-02-09T14:14:54.518Z,93577.13
2019-02-09T14:17:22.080Z,93572.37
2019-02-09T14:19:49.554Z,93570.14
2019-02-09T14:22:17.006Z,93580.65
2019-02-09T14:24:44.422Z,93584.11
2019-02-09T14:27:11.828Z,93568.32
2019-02-09T14:29:39.291Z,93577.20
2019-02-09T14:32:06.718Z,93571.54
2019-02-09T14:34:34.162Z,93578.73
2019-02-09T14:37:01.535Z,93578.66
2019-02-09T14:39:28.930Z,93577.42
2019-02-09T14:41:56.340Z,93580.64
2019-02-09T14:44:23.768Z,93582.69
2019-02-09T14:46:51.167Z,93583.01
2019-02-09T14:49:18.608Z,93579.02
2019-02-09T14:51:46.009Z,93589.61
2019-02-09T14:54:13.399Z,93586.61
2019-02-09T14:56:40.910Z,93594.95
2019-02-09T14:59:08.387Z,93591.41
2019-02-09T15:01:35.800Z,93603.04
2019-02-09T15:04:03.635Z,93594.52
2019-02-09T15:06:31.103Z,93593.08
2019-02-09T15:08:58.540Z,93584.95
2019-02-09T15:11:25.955Z,93596.36
2019-02-09T15:13:53.691Z,93599.47
2019-02-09T15:16:23.319Z,93595.69
2019-02-09T15:18:50.827Z,93603.80
2019-02-09T15:21:18.318Z,93603.73
2019-02-09T15:23:45.727Z,93596.88
2019-02-09T15:26:13.237Z,93610.67
2019-02-09T15:28:40.916Z,93614.08
2019-02-09T15:31:08.325Z,93612.22
2019-02-09T15:33:35.686Z,93618.98
2019-02-09T15:36:03.215Z,93614.48
2019-02-09T15:38:30.598Z,93609.38
2019-02-09T15:40:58.027Z,93609.30
2019-02-09T15:43:25.442Z,93617.97
2019-02-09T15:45:52.818Z,93615.33
2019-02-09T15:48:20.252Z,93611.45
2019-02-09T15:50:47.643Z,93620.91
2019-02-09T15:53:15.031Z,93618.03
2019-02-09T15:55:42.572Z,93620.91
2019-02-09T15:58:09.929Z,93625.86
2019-02-09T16:00:37.335Z,93622.64
2019-02-09T16:03:04.762Z,93626.84
2019-02-09T16:05:32.255Z,93636.21
2019-02-09T16:07:59.682Z,93630.72
2019-02-09T16:10:27.346Z,93632.25
2019-02-09T16:12:54.751Z,93629.92
2019-02-09T16:15:23.011Z,93632.77
2019-02-09T16:17:50.418Z,93633.58
2019-02-09T16:20:18.686Z,93630.20
2019-02-09T16:22:46.510Z,93635.80
2019-02-09T16:25:14.667Z,93640.76
2019-02-09T16:27:42.075Z,93642.81
2019-02-09T16:30:18.288Z,93653.29
2019-02-09T16:32:41.320Z,93651.90
2019-02-09T16:35:09.963Z,93663.03
2019-02-09T16:37:37.400Z,93661.07
2019-02-09T16:40:05.820Z,93668.56
2019-02-09T16:42:33.214Z,93660.73
2019-02-09T16:45:00.787Z,93662.25
2019-02-09T16:47:28.301Z,93656.11
2019-02-09T16:49:55.971Z,93661.17
2019-02-09T16:52:23.335Z,93656.00
2019-02-09T16:54:50.728Z,93643.61
2019-02-09T16:57:18.163Z,93660.23
2019-02-09T16:59:45.655Z,93664.97
2019-02-09T17:02:13.218Z,93663.33
2019-02-09T17:04:40.727Z,93670.02
2019-02-09T17:07:08.346Z,93660.93
2019-02-09T17:09:35.749Z,93665.98
2019-02-09T17:12:03.537Z,93672.38
2019-02-09T17:14:31.239Z,93666.55
2019-02-09T17:16:58.716Z,93664.36
2019-02-09T17:19:26.201Z,93664.97
2019-02-09T17:21:53.585Z,93668.56
2019-02-09T17:24:21.139Z,93665.95
2019-02-09T17:26:48.637Z,93668.23
2019-02-09T17:29:16.044Z,93671.16
2019-02-09T17:31:43.508Z,93668.56
2019-02-09T17:34:10.921Z,93673.32
2019-02-09T17:36:38.430Z,93680.36
2019-02-09T17:39:06.670Z,93678.41
2019-02-09T17:41:34.080Z,93681.99
2019-02-09T17:44:01.573Z,93677.14
2019-02-09T17:46:29.074Z,93676.33
2019-02-09T17:48:56.579Z,93672.91
2019-02-09T17:51:24.098Z,93676.81
2019-02-09T17:53:51.511Z,93666.06
2019-02-09T17:56:18.987Z,93671.63
2019-02-09T17:58:46.545Z,93661.21
2019-02-09T18:01:14.557Z,93665.13
2019-02-09T18:03:41.940Z,93662.52
2019-02-09T18:06:09.384Z,93668.70
2019-02-09T18:08:36.757Z,93669.72
2019-02-09T18:11:04.409Z,93666.53
2019-02-09T18:13:31.907Z,93669.75
2019-02-09T18:15:59.321Z,93662.62
2019-02-09T18:18:26.757Z,93666.56
2019-02-09T18:20:54.252Z,93662.97
2019-02-09T18:23:21.641Z,93663.01
2019-02-09T18:25:49.104Z,93658.80
2019-02-09T18:28:16.611Z,93659.81
2019-02-09T18:30:44.136Z,93654.27
2019-02-09T18:33:11.535Z,93655.93
2019-02-09T18:35:39.058Z,93662.79
2019-02-09T18:38:06.445Z,93658.88
2019-02-09T18:40:34.046Z,93657.90
2019-02-09T18:43:01.493Z,93655.64
2019-02-09T18:45:29.029Z,93654.67
2019-02-09T18:47:56.723Z,93653.73
2019-02-09T18:50:24.526Z,93653.71
2019-02-09T18:52:51.914Z,93650.16
2019-02-09T18:55:20.012Z,93652.92
2019-02-09T18:57:47.479Z,93658.59
2019-02-09T19:00:18.979Z,93663.17
2019-02-09T19:02:46.494Z,93667.69
2019-02-09T19:05:14.022Z,93669.29
2019-02-09T19:07:41.502Z,93659.87
2019-02-09T19:10:10.688Z,93657.27
2019-02-09T19:12:38.247Z,93637.78
2019-02-09T19:15:06.134Z,93640.70
2019-02-09T19:17:33.563Z,93631.92
2019-02-09T19:20:01.038Z,93630.64
2019-02-09T19:22:28.459Z,93637.80
2019-02-09T19:24:55.950Z,93640.77
2019-02-09T19:27:23.333Z,93627.13
2019-02-09T19:29:50.760Z,93623.86
2019-02-09T19:32:18.160Z,93621.92
2019-02-09T19:34:45.747Z,93622.55
2019-02-09T19:37:14.829Z,93615.40
2019-02-09T19:39:42.335Z,93618.32
2019-02-09T19:42:09.873Z,93623.66
2019-02-09T19:44:37.332Z,93618.66
2019-02-09T19:47:04.843Z,93619.44
2019-02-09T19:49:32.677Z,93620.09
2019-02-09T19:52:03.353Z,93628.87
2019-02-09T19:54:30.835Z,93627.42
2019-02-09T19:56:58.267Z,93628.41
2019-02-09T19:59:27.375Z,93614.13
2019-02-09T20:01:54.750Z,93621.41
2019-02-09T20:04:22.174Z,93627.73
2019-02-09T20:06:50.018Z,93629.38
2019-02-09T20:09:17.502Z,93629.20
2019-02-09T20:11:45.025Z,93621.58
2019-02-09T20:14:13.797Z,93625.80
2019-02-09T20:16:41.268Z,93626.45
2019-02-09T20:19:08.711Z,93627.44
2019-02-09T20:21:36.144Z,93618.64
2019-02-09T20:24:03.799Z,93610.84
2019-02-09T20:26:31.328Z,93612.33
2019-02-09T20:28:58.778Z,93610.52
2019-02-09T20:31:26.326Z,93606.42
2019-02-09T20:33:53.711Z,93605.31
2019-02-09T20:36:21.213Z,93605.50
2019-02-09T20:38:48.762Z,93607.78
2019-02-09T20:41:16.412Z,93597.83
2019-02-09T20:43:43.957Z,93595.58
2019-02-09T20:46:11.461Z,93601.11
2019-02-09T20:48:38.970Z,93596.23
2019-02-09T20:51:06.612Z,93605.34
2019-02-09T20:53:34.127Z,93598.83
2019-02-09T20:56:01.589Z,93596.88
2019-02-09T20:58:29.168Z,93608.58
2019-02-09T21:00:56.768Z,93603.73
2019-02-09T21:03:24.253Z,93593.35
2019-02-09T21:05:51.797Z,93588.45
2019-02-09T21:08:19.443Z,93591.39
2019-02-09T21:10:46.972Z,93581.34
2019-02-09T21:13:14.521Z,93576.44
2019-02-09T21:15:42.076Z,93581.30
2019-02-09T21:18:09.544Z,93577.72
2019-02-09T21:20:36.943Z,93582.62
2019-02-09T21:23:04.689Z,93584.56
2019-02-09T21:25:33.089Z,93583.14
2019-02-09T21:28:23.999Z,93586.55
2019-02-09T21:30:51.499Z,93586.06
2019-02-09T21:33:19.003Z,93584.42
2019-02-09T21:35:46.557Z,93576.81
2019-02-09T21:38:14.101Z,93580.22
2019-02-09T21:40:41.622Z,93571.92
2019-02-09T21:43:09.160Z,93572.60
2019-02-09T21:45:44.510Z,93563.81
2019-02-09T21:48:05.990Z,93564.17
2019-02-09T21:50:34.051Z,93567.74
2019-02-09T21:53:01.603Z,93571.97
2019-02-09T21:55:29.102Z,93563.80
2019-02-09T21:57:56.677Z,93563.16
2019-02-09T22:00:34.020Z,93558.97
2019-02-09T22:03:01.645Z,93544.96
2019-02-09T22:05:29.348Z,93545.81
2019-02-09T22:07:56.813Z,93548.91
2019-02-09T22:10:29.406Z,93558.29
2019-02-09T22:12:54.030Z,93544.34
2019-02-09T22:15:22.219Z,93551.48
2019-02-09T22:17:49.658Z,93549.70
2019-02-09T22:20:17.168Z,93545.98
2019-02-09T22:22:44.571Z,93550.23
2019-02-09T22:25:15.657Z,93542.06
2019-02-09T22:27:43.424Z,93539.65
2019-02-09T22:30:11.702Z,93532.33
2019-02-09T22:32:42.207Z,93530.38
2019-02-09T22:35:09.872Z,93527.45
2019-02-09T22:37:37.571Z,93520.98
2019-02-09T22:40:07.684Z,93513.51
2019-02-09T22:42:35.187Z,93516.11
2019-02-09T22:45:03.632Z,93514.13
2019-02-09T22:47:31.252Z,93508.93
2019-02-09T22:49:58.797Z,93505.20
2019-02-09T22:52:26.370Z,93497.39
2019-02-09T22:54:54.719Z,93496.28
2019-02-09T22:57:22.655Z,93496.31
2019-02-09T22:59:51.258Z,93492.70
2019-02-09T23:02:19.003Z,93485.53
2019-02-09T23:04:58.615Z,93482.80
2019-02-09T23:07:27.791Z,93467.98
2019-02-09T23:09:56.021Z,93473.78
2019-02-09T23:12:23.588Z,93475.08
2019-02-09T23:14:51.102Z,93475.41
2019-02-09T23:17:18.648Z,93482.55
2019-02-09T23:19:46.606Z,93477.36
2019-02-09T23:22:14.651Z,93469.86
2019-02-09T23:24:42.137Z,93465.95
2019-02-09T23:27:09.790Z,93460.27
2019-02-09T23:29:37.263Z,93453.41
2019-02-09T23:32:05.191Z,93453.25
2019-02-09T23:34:32.929Z,93451.30
2019-02-09T23:37:00.449Z,93445.77
2019-02-09T23:39:27.893Z,93442.81
2019-02-09T23:41:55.815Z,93440.83
2019-02-09T23:44:23.200Z,93438.52
2019-02-09T23:46:50.586Z,93433.59
2019-02-09T23:49:18.100Z,93445.92
2019-02-09T23:51:45.544Z,93437.13
2019-02-09T23:54:12.938Z,93438.76
2019-02-09T23:56:40.314Z,93433.40
2019-02-09T23:59:07.765Z,93426.03
